sensor_id;sensor_type;location;lat;lon;timestamp;pressure;altitude;pressure_sealevel;temperature;humidity
73952;BME280;62304;47.662;18.324;2023-04-01T00:01:14;98966.53;;;10.00;93.96
73952;BME280;62304;47.662;18.324;2023-04-01T00:04:17;98961.38;;;9.98;93.42
73952;BME280;62304;47.662;18.324;2023-04-01T00:07:20;98961.38;;;9.95;93.41
73952;BME280;62304;47.662;18.324;2023-04-01T00:10:23;98955.44;;;10.00;93.16
73952;BME280;62304;47.662;18.324;2023-04-01T00:13:27;98955.84;;;9.98;92.92
73952;BME280;62304;47.662;18.324;2023-04-01T00:16:30;98959.41;;;9.95;92.70
73952;BME280;62304;47.662;18.324;2023-04-01T00:19:33;98962.97;;;10.06;92.33
73952;BME280;62304;47.662;18.324;2023-04-01T00:22:36;98948.38;;;9.88;92.70
73952;BME280;62304;47.662;18.324;2023-04-01T00:25:39;98950.34;;;9.74;93.32
73952;BME280;62304;47.662;18.324;2023-04-01T00:28:43;98959.06;;;9.72;93.37
73952;BME280;62304;47.662;18.324;2023-04-01T00:31:45;98963.41;;;9.73;93.80
73952;BME280;62304;47.662;18.324;2023-04-01T00:34:52;98951.94;;;9.71;93.48
73952;BME280;62304;47.662;18.324;2023-04-01T00:37:55;98955.91;;;9.63;93.64
73952;BME280;62304;47.662;18.324;2023-04-01T00:40:58;98953.94;;;9.67;93.78
73952;BME280;62304;47.662;18.324;2023-04-01T00:44:17;98943.25;;;9.69;93.45
73952;BME280;62304;47.662;18.324;2023-04-01T00:47:22;98942.06;;;9.70;93.51
73952;BME280;62304;47.662;18.324;2023-04-01T00:50:28;98946.81;;;9.59;93.99
73952;BME280;62304;47.662;18.324;2023-04-01T00:53:32;98946.03;;;9.59;93.95
73952;BME280;62304;47.662;18.324;2023-04-01T00:56:44;98952.34;;;9.56;93.69
73952;BME280;62304;47.662;18.324;2023-04-01T00:59:54;98952.34;;;9.56;93.29
73952;BME280;62304;47.662;18.324;2023-04-01T01:02:58;98947.59;;;9.49;93.50
73952;BME280;62304;47.662;18.324;2023-04-01T01:09:23;98951.56;;;9.62;92.85
73952;BME280;62304;47.662;18.324;2023-04-01T01:12:36;98949.97;;;9.54;93.79
73952;BME280;62304;47.662;18.324;2023-04-01T01:15:44;98949.22;;;9.50;93.62
73952;BME280;62304;47.662;18.324;2023-04-01T01:19:01;98950.38;;;9.49;92.99
73952;BME280;62304;47.662;18.324;2023-04-01T01:25:55;98951.59;;;9.55;93.30
73952;BME280;62304;47.662;18.324;2023-04-01T01:35:50;98938.53;;;9.49;92.84
73952;BME280;62304;47.662;18.324;2023-04-01T01:38:55;98941.31;;;9.49;93.20
73952;BME280;62304;47.662;18.324;2023-04-01T01:42:03;98938.12;;;9.43;93.70
73952;BME280;62304;47.662;18.324;2023-04-01T01:45:09;98932.22;;;9.20;94.49
73952;BME280;62304;47.662;18.324;2023-04-01T01:48:13;98933.00;;;9.03;95.31
73952;BME280;62304;47.662;18.324;2023-04-01T01:51:18;98934.53;;;8.83;96.44
73952;BME280;62304;47.662;18.324;2023-04-01T01:54:22;98938.50;;;8.86;95.94
73952;BME280;62304;47.662;18.324;2023-04-01T01:57:31;98938.91;;;8.81;95.86
73952;BME280;62304;47.662;18.324;2023-04-01T02:00:36;98940.44;;;8.68;97.12
73952;BME280;62304;47.662;18.324;2023-04-01T02:03:42;98949.09;;;8.59;97.91
73952;BME280;62304;47.662;18.324;2023-04-01T02:06:53;98927.37;;;8.54;98.32
73952;BME280;62304;47.662;18.324;2023-04-01T02:09:59;98923.47;;;8.76;97.06
73952;BME280;62304;47.662;18.324;2023-04-01T02:13:07;98929.38;;;8.71;97.51
73952;BME280;62304;47.662;18.324;2023-04-01T02:16:16;98923.88;;;8.75;96.96
73952;BME280;62304;47.662;18.324;2023-04-01T02:19:31;98915.59;;;8.99;95.97
73952;BME280;62304;47.662;18.324;2023-04-01T02:22:43;98917.19;;;9.14;95.18
73952;BME280;62304;47.662;18.324;2023-04-01T02:25:48;98919.19;;;9.24;94.33
73952;BME280;62304;47.662;18.324;2023-04-01T02:28:53;98915.22;;;9.25;94.29
73952;BME280;62304;47.662;18.324;2023-04-01T02:31:58;98916.00;;;9.33;93.23
73952;BME280;62304;47.662;18.324;2023-04-01T02:35:01;98907.31;;;9.34;93.14
73952;BME280;62304;47.662;18.324;2023-04-01T02:38:08;98905.72;;;9.05;93.93
73952;BME280;62304;47.662;18.324;2023-04-01T02:41:12;98900.22;;;8.84;95.40
73952;BME280;62304;47.662;18.324;2023-04-01T02:44:15;98902.56;;;8.82;95.67
73952;BME280;62304;47.662;18.324;2023-04-01T02:47:18;98898.59;;;8.66;96.42
73952;BME280;62304;47.662;18.324;2023-04-01T02:50:21;98899.72;;;8.40;98.07
73952;BME280;62304;47.662;18.324;2023-04-01T02:53:24;98893.88;;;8.70;96.62
73952;BME280;62304;47.662;18.324;2023-04-01T02:56:27;98895.84;;;8.66;96.20
73952;BME280;62304;47.662;18.324;2023-04-01T02:59:30;98884.34;;;8.43;96.99
73952;BME280;62304;47.662;18.324;2023-04-01T03:02:33;98889.00;;;8.28;97.66
73952;BME280;62304;47.662;18.324;2023-04-01T03:05:36;98888.69;;;8.44;96.66
73952;BME280;62304;47.662;18.324;2023-04-01T03:08:39;98902.50;;;8.40;95.66
73952;BME280;62304;47.662;18.324;2023-04-01T03:11:43;98915.06;;;8.27;95.60
73952;BME280;62304;47.662;18.324;2023-04-01T03:14:46;98915.03;;;8.20;95.87
73952;BME280;62304;47.662;18.324;2023-04-01T03:17:49;98918.25;;;8.36;96.05
73952;BME280;62304;47.662;18.324;2023-04-01T03:20:52;98910.81;;;8.58;95.22
73952;BME280;62304;47.662;18.324;2023-04-01T03:23:55;98908.47;;;8.60;94.95
73952;BME280;62304;47.662;18.324;2023-04-01T03:26:58;98906.06;;;8.48;94.92
73952;BME280;62304;47.662;18.324;2023-04-01T03:30:03;98915.12;;;8.48;94.72
73952;BME280;62304;47.662;18.324;2023-04-01T03:33:08;98915.12;;;8.45;94.77
73952;BME280;62304;47.662;18.324;2023-04-01T03:36:11;98928.50;;;8.36;94.75
73952;BME280;62304;47.662;18.324;2023-04-01T03:39:15;98929.69;;;8.31;94.89
73952;BME280;62304;47.662;18.324;2023-04-01T03:42:21;98934.81;;;8.26;95.35
73952;BME280;62304;47.662;18.324;2023-04-01T03:45:24;98929.19;;;8.12;96.61
73952;BME280;62304;47.662;18.324;2023-04-01T03:48:27;98938.66;;;8.14;96.24
73952;BME280;62304;47.662;18.324;2023-04-01T03:51:30;98934.03;;;8.36;94.72
73952;BME280;62304;47.662;18.324;2023-04-01T03:54:33;98937.97;;;8.31;94.55
73952;BME280;62304;47.662;18.324;2023-04-01T03:57:36;98942.75;;;8.52;93.86
73952;BME280;62304;47.662;18.324;2023-04-01T04:00:39;98946.63;;;8.30;94.34
73952;BME280;62304;47.662;18.324;2023-04-01T04:03:44;98964.00;;;8.23;95.07
73952;BME280;62304;47.662;18.324;2023-04-01T04:06:47;98962.47;;;8.47;94.74
73952;BME280;62304;47.662;18.324;2023-04-01T04:09:51;98952.25;;;8.54;94.30
73952;BME280;62304;47.662;18.324;2023-04-01T04:12:53;98954.59;;;8.45;94.53
73952;BME280;62304;47.662;18.324;2023-04-01T04:15:58;98948.28;;;8.55;94.33
73952;BME280;62304;47.662;18.324;2023-04-01T04:19:01;98924.28;;;8.84;93.00
73952;BME280;62304;47.662;18.324;2023-04-01T04:22:04;98937.28;;;8.62;94.00
73952;BME280;62304;47.662;18.324;2023-04-01T04:25:08;98939.25;;;8.69;92.78
73952;BME280;62304;47.662;18.324;2023-04-01T04:28:11;98935.22;;;8.35;94.84
73952;BME280;62304;47.662;18.324;2023-04-01T04:31:21;98936.03;;;8.39;94.09
73952;BME280;62304;47.662;18.324;2023-04-01T04:34:25;98936.25;;;8.02;96.21
73952;BME280;62304;47.662;18.324;2023-04-01T04:37:28;98940.91;;;7.88;96.36
73952;BME280;62304;47.662;18.324;2023-04-01T04:40:31;98946.38;;;7.84;96.25
73952;BME280;62304;47.662;18.324;2023-04-01T04:43:33;98948.34;;;7.80;96.90
73952;BME280;62304;47.662;18.324;2023-04-01T04:46:37;98947.91;;;7.78;97.38
73952;BME280;62304;47.662;18.324;2023-04-01T04:49:45;98942.41;;;7.78;96.91
73952;BME280;62304;47.662;18.324;2023-04-01T04:52:48;98946.78;;;7.79;96.94
73952;BME280;62304;47.662;18.324;2023-04-01T04:55:52;98952.56;;;7.64;97.58
73952;BME280;62304;47.662;18.324;2023-04-01T04:58:57;98946.25;;;7.60;97.60
73952;BME280;62304;47.662;18.324;2023-04-01T05:02:00;98944.69;;;7.62;97.29
73952;BME280;62304;47.662;18.324;2023-04-01T05:05:04;98944.72;;;7.69;97.55
73952;BME280;62304;47.662;18.324;2023-04-01T05:08:07;98947.16;;;7.81;97.51
73952;BME280;62304;47.662;18.324;2023-04-01T05:11:16;98959.91;;;8.03;96.84
73952;BME280;62304;47.662;18.324;2023-04-01T05:14:19;98966.75;;;8.23;96.85
73952;BME280;62304;47.662;18.324;2023-04-01T05:17:23;98965.22;;;8.40;96.00
73952;BME280;62304;47.662;18.324;2023-04-01T05:20:26;98962.16;;;8.73;94.88
73952;BME280;62304;47.662;18.324;2023-04-01T05:23:31;98955.13;;;8.89;93.75
73952;BME280;62304;47.662;18.324;2023-04-01T05:26:34;98961.06;;;9.47;93.85
73952;BME280;62304;47.662;18.324;2023-04-01T05:29:37;98960.25;;;9.68;91.16
73952;BME280;62304;47.662;18.324;2023-04-01T05:32:41;98960.66;;;9.66;90.79
73952;BME280;62304;47.662;18.324;2023-04-01T05:35:44;98970.94;;;9.52;90.62
73952;BME280;62304;47.662;18.324;2023-04-01T05:38:47;98966.59;;;9.61;91.82
73952;BME280;62304;47.662;18.324;2023-04-01T05:41:51;98966.59;;;9.51;91.50
73952;BME280;62304;47.662;18.324;2023-04-01T05:44:54;98970.53;;;9.53;91.30
73952;BME280;62304;47.662;18.324;2023-04-01T05:48:05;98972.13;;;9.61;92.41
73952;BME280;62304;47.662;18.324;2023-04-01T05:51:15;98961.03;;;9.86;91.10
73952;BME280;62304;47.662;18.324;2023-04-01T05:54:19;98968.91;;;10.08;89.19
73952;BME280;62304;47.662;18.324;2023-04-01T05:57:22;98963.34;;;10.15;89.47
73952;BME280;62304;47.662;18.324;2023-04-01T06:00:26;98962.94;;;10.20;86.83
73952;BME280;62304;47.662;18.324;2023-04-01T06:03:29;98965.28;;;10.32;85.73
73952;BME280;62304;47.662;18.324;2023-04-01T06:06:38;98964.84;;;10.41;87.78
73952;BME280;62304;47.662;18.324;2023-04-01T06:09:44;98968.81;;;10.36;86.76
73952;BME280;62304;47.662;18.324;2023-04-01T06:23:01;98958.84;;;10.53;85.74
73952;BME280;62304;47.662;18.324;2023-04-01T06:26:16;98964.72;;;10.62;85.00
73952;BME280;62304;47.662;18.324;2023-04-01T06:44:13;98978.81;;;10.95;82.56
73952;BME280;62304;47.662;18.324;2023-04-01T06:54:32;98985.47;;;11.66;80.59
73952;BME280;62304;47.662;18.324;2023-04-01T06:57:45;98976.78;;;12.01;79.38
73952;BME280;62304;47.662;18.324;2023-04-01T07:00:53;98978.44;;;11.95;79.27
73952;BME280;62304;47.662;18.324;2023-04-01T07:04:14;98974.84;;;11.98;78.99
73952;BME280;62304;47.662;18.324;2023-04-01T07:11:02;98971.81;;;12.23;78.22
73952;BME280;62304;47.662;18.324;2023-04-01T07:14:29;98976.19;;;12.20;77.98
73952;BME280;62304;47.662;18.324;2023-04-01T07:17:36;98982.06;;;11.89;79.25
73952;BME280;62304;47.662;18.324;2023-04-01T07:20:41;98984.59;;;11.76;80.17
73952;BME280;62304;47.662;18.324;2023-04-01T07:23:45;98989.38;;;11.72;79.35
73952;BME280;62304;47.662;18.324;2023-04-01T07:26:56;98986.19;;;11.74;80.20
73952;BME280;62304;47.662;18.324;2023-04-01T07:30:06;98993.44;;;11.57;79.49
73952;BME280;62304;47.662;18.324;2023-04-01T07:33:21;99000.72;;;11.41;76.81
73952;BME280;62304;47.662;18.324;2023-04-01T07:36:38;99004.66;;;11.43;77.86
73952;BME280;62304;47.662;18.324;2023-04-01T07:46:46;99010.97;;;11.47;76.52
73952;BME280;62304;47.662;18.324;2023-04-01T07:50:18;99013.28;;;11.56;75.54
73952;BME280;62304;47.662;18.324;2023-04-01T08:00:32;99007.75;;;12.03;75.07
73952;BME280;62304;47.662;18.324;2023-04-01T08:07:18;99017.34;;;11.95;75.88
73952;BME280;62304;47.662;18.324;2023-04-01T08:14:22;99013.78;;;11.95;75.64
73952;BME280;62304;47.662;18.324;2023-04-01T08:21:15;99007.78;;;11.96;73.95
73952;BME280;62304;47.662;18.324;2023-04-01T08:24:42;99016.25;;;11.86;72.63
73952;BME280;62304;47.662;18.324;2023-04-01T08:27:59;99016.91;;;12.00;71.86
73952;BME280;62304;47.662;18.324;2023-04-01T08:31:06;99016.78;;;12.14;71.81
73952;BME280;62304;47.662;18.324;2023-04-01T08:34:24;99007.22;;;12.15;71.42
73952;BME280;62304;47.662;18.324;2023-04-01T08:37:35;98999.12;;;12.31;70.89
73952;BME280;62304;47.662;18.324;2023-04-01T08:40:58;99006.72;;;12.57;70.29
73952;BME280;62304;47.662;18.324;2023-04-01T08:58:22;98991.78;;;13.34;66.58
73952;BME280;62304;47.662;18.324;2023-04-01T09:05:10;98993.91;;;13.76;65.05
73952;BME280;62304;47.662;18.324;2023-04-01T09:25:47;98990.78;;;14.17;63.23
73952;BME280;62304;47.662;18.324;2023-04-01T09:37:00;98985.81;;;14.28;62.75
73952;BME280;62304;47.662;18.324;2023-04-01T09:39:36;98989.84;;;14.27;62.08
73952;BME280;62304;47.662;18.324;2023-04-01T09:46:16;98979.84;;;14.49;61.83
73952;BME280;62304;47.662;18.324;2023-04-01T10:30:18;98992.09;;;15.77;54.29
73952;BME280;62304;47.662;18.324;2023-04-01T10:40:38;98984.16;;;15.24;54.45
73952;BME280;62304;47.662;18.324;2023-04-01T10:54:18;98989.47;;;14.44;57.49
73952;BME280;62304;47.662;18.324;2023-04-01T10:57:48;98982.31;;;14.43;57.85
73952;BME280;62304;47.662;18.324;2023-04-01T11:35:55;98968.81;;;14.42;55.91
73952;BME280;62304;47.662;18.324;2023-04-01T11:39:19;98971.22;;;14.20;56.66
73952;BME280;62304;47.662;18.324;2023-04-01T11:42:51;98981.03;;;14.05;57.47
73952;BME280;62304;47.662;18.324;2023-04-01T11:46:11;98980.34;;;14.01;58.39
73952;BME280;62304;47.662;18.324;2023-04-01T11:49:55;98980.09;;;13.92;59.32
73952;BME280;62304;47.662;18.324;2023-04-01T12:06:19;98981.56;;;14.62;59.41
73952;BME280;62304;47.662;18.324;2023-04-01T12:23:15;98977.63;;;14.40;59.17
73952;BME280;62304;47.662;18.324;2023-04-01T12:26:24;98980.09;;;14.35;59.46
73952;BME280;62304;47.662;18.324;2023-04-01T12:36:10;98973.13;;;14.04;62.20
73952;BME280;62304;47.662;18.324;2023-04-01T12:42:51;98980.69;;;14.03;62.09
73952;BME280;62304;47.662;18.324;2023-04-01T12:55:49;98975.69;;;14.57;58.39
73952;BME280;62304;47.662;18.324;2023-04-01T13:09:21;98972.16;;;14.53;55.97
73952;BME280;62304;47.662;18.324;2023-04-01T13:16:14;98970.97;;;14.11;54.79
73952;BME280;62304;47.662;18.324;2023-04-01T13:19:35;98976.38;;;14.22;54.14
73952;BME280;62304;47.662;18.324;2023-04-01T13:29:31;98976.41;;;14.61;53.65
73952;BME280;62304;47.662;18.324;2023-04-01T13:42:37;98974.25;;;15.71;53.22
73952;BME280;62304;47.662;18.324;2023-04-01T14:02:56;98952.13;;;16.37;48.90
73952;BME280;62304;47.662;18.324;2023-04-01T14:06:12;98961.69;;;16.24;49.51
73952;BME280;62304;47.662;18.324;2023-04-01T14:12:44;98959.25;;;16.26;49.91
73952;BME280;62304;47.662;18.324;2023-04-01T14:32:43;98945.84;;;17.15;43.36
73952;BME280;62304;47.662;18.324;2023-04-01T14:49:37;98946.38;;;17.23;43.50
73952;BME280;62304;47.662;18.324;2023-04-01T14:56:12;98954.53;;;16.92;43.93
73952;BME280;62304;47.662;18.324;2023-04-01T15:05:55;98951.66;;;17.33;43.68
73952;BME280;62304;47.662;18.324;2023-04-01T15:16:06;98947.19;;;16.57;45.15
73952;BME280;62304;47.662;18.324;2023-04-01T15:29:55;98938.91;;;16.38;46.35
73952;BME280;62304;47.662;18.324;2023-04-01T15:36:28;98944.34;;;16.29;46.79
73952;BME280;62304;47.662;18.324;2023-04-01T15:53:18;98966.47;;;15.31;45.99
73952;BME280;62304;47.662;18.324;2023-04-01T16:07:04;98977.59;;;14.79;46.74
73952;BME280;62304;47.662;18.324;2023-04-01T16:17:46;98983.78;;;14.51;47.47
73952;BME280;62304;47.662;18.324;2023-04-01T16:21:06;98993.13;;;14.41;47.67
73952;BME280;62304;47.662;18.324;2023-04-01T16:27:46;98999.47;;;14.22;48.60
73952;BME280;62304;47.662;18.324;2023-04-01T16:34:39;98998.12;;;14.07;48.92
73952;BME280;62304;47.662;18.324;2023-04-01T16:37:54;99003.06;;;14.00;49.29
73952;BME280;62304;47.662;18.324;2023-04-01T16:44:10;99006.19;;;13.79;50.06
73952;BME280;62304;47.662;18.324;2023-04-01T16:47:19;99020.31;;;13.68;50.76
73952;BME280;62304;47.662;18.324;2023-04-01T16:50:37;99013.75;;;13.55;50.85
73952;BME280;62304;47.662;18.324;2023-04-01T16:53:46;99019.09;;;13.43;51.07
73952;BME280;62304;47.662;18.324;2023-04-01T16:56:56;99020.09;;;13.29;51.41
73952;BME280;62304;47.662;18.324;2023-04-01T17:00:21;99019.44;;;13.22;51.75
73952;BME280;62304;47.662;18.324;2023-04-01T17:03:33;99025.16;;;13.11;51.99
73952;BME280;62304;47.662;18.324;2023-04-01T17:13:40;99033.69;;;12.64;54.54
73952;BME280;62304;47.662;18.324;2023-04-01T17:20:31;99040.31;;;12.40;55.83
73952;BME280;62304;47.662;18.324;2023-04-01T17:41:01;99065.47;;;11.82;58.21
73952;BME280;62304;47.662;18.324;2023-04-01T17:51:23;99081.22;;;11.99;57.89
73952;BME280;62304;47.662;18.324;2023-04-01T17:58:00;99088.34;;;12.00;57.96
73952;BME280;62304;47.662;18.324;2023-04-01T18:01:34;99093.22;;;11.85;59.24
73952;BME280;62304;47.662;18.324;2023-04-01T18:15:27;99116.75;;;10.98;63.52
73952;BME280;62304;47.662;18.324;2023-04-01T18:22:19;99117.59;;;10.74;63.36
73952;BME280;62304;47.662;18.324;2023-04-01T18:25:47;99127.13;;;10.73;63.77
73952;BME280;62304;47.662;18.324;2023-04-01T18:28:59;99122.34;;;10.70;64.88
73952;BME280;62304;47.662;18.324;2023-04-01T18:38:31;99130.72;;;10.46;65.86
73952;BME280;62304;47.662;18.324;2023-04-01T18:45:22;99143.00;;;9.96;68.59
73952;BME280;62304;47.662;18.324;2023-04-01T18:48:33;99144.56;;;9.69;69.56
73952;BME280;62304;47.662;18.324;2023-04-01T18:51:49;99157.56;;;9.51;71.26
73952;BME280;62304;47.662;18.324;2023-04-01T18:58:34;99158.81;;;9.71;69.54
73952;BME280;62304;47.662;18.324;2023-04-01T19:05:14;99157.56;;;9.51;71.03
73952;BME280;62304;47.662;18.324;2023-04-01T19:11:38;99160.75;;;9.63;70.83
73952;BME280;62304;47.662;18.324;2023-04-01T19:18:32;99173.03;;;9.69;69.81
73952;BME280;62304;47.662;18.324;2023-04-01T19:21:57;99175.38;;;9.57;71.25
73952;BME280;62304;47.662;18.324;2023-04-01T19:28:47;99182.53;;;9.79;70.70
73952;BME280;62304;47.662;18.324;2023-04-01T19:48:52;99208.25;;;9.72;73.53
73952;BME280;62304;47.662;18.324;2023-04-01T19:52:04;99215.00;;;9.75;73.50
73952;BME280;62304;47.662;18.324;2023-04-01T19:55:43;99229.97;;;9.67;74.13
73952;BME280;62304;47.662;18.324;2023-04-01T20:02:44;99224.44;;;9.63;74.42
73952;BME280;62304;47.662;18.324;2023-04-01T20:09:42;99235.16;;;9.75;73.29
73952;BME280;62304;47.662;18.324;2023-04-01T20:13:19;99237.91;;;9.72;74.27
73952;BME280;62304;47.662;18.324;2023-04-01T20:19:57;99229.59;;;9.72;73.34
73952;BME280;62304;47.662;18.324;2023-04-01T20:26:21;99249.81;;;9.86;74.27
73952;BME280;62304;47.662;18.324;2023-04-01T21:03:10;99263.38;;;10.16;71.12
73952;BME280;62304;47.662;18.324;2023-04-01T21:06:41;99262.50;;;10.01;71.55
73952;BME280;62304;47.662;18.324;2023-04-01T21:10:17;99275.91;;;9.78;72.44
73952;BME280;62304;47.662;18.324;2023-04-01T21:16:47;99276.75;;;10.03;72.02
73952;BME280;62304;47.662;18.324;2023-04-01T21:29:59;99275.03;;;9.60;73.68
73952;BME280;62304;47.662;18.324;2023-04-01T21:39:47;99283.78;;;9.66;74.10
73952;BME280;62304;47.662;18.324;2023-04-01T22:06:44;99277.94;;;9.88;73.47
73952;BME280;62304;47.662;18.324;2023-04-01T22:13:32;99288.19;;;9.77;73.96
73952;BME280;62304;47.662;18.324;2023-04-01T22:16:57;99292.50;;;9.75;75.09
73952;BME280;62304;47.662;18.324;2023-04-01T22:20:30;99307.13;;;9.72;75.21
73952;BME280;62304;47.662;18.324;2023-04-01T22:23:51;99300.78;;;9.71;75.23
73952;BME280;62304;47.662;18.324;2023-04-01T22:30:27;99314.97;;;9.63;75.15
73952;BME280;62304;47.662;18.324;2023-04-01T22:37:23;99317.34;;;9.54;77.05
73952;BME280;62304;47.662;18.324;2023-04-01T22:40:34;99322.87;;;9.57;76.64
73952;BME280;62304;47.662;18.324;2023-04-01T22:43:41;99323.34;;;9.66;76.86
73952;BME280;62304;47.662;18.324;2023-04-01T22:53:47;99333.69;;;9.83;77.10
73952;BME280;62304;47.662;18.324;2023-04-01T22:57:11;99329.81;;;10.02;76.35
73952;BME280;62304;47.662;18.324;2023-04-01T23:00:21;99325.88;;;10.06;76.07
73952;BME280;62304;47.662;18.324;2023-04-01T23:03:49;99320.69;;;10.01;76.08
73952;BME280;62304;47.662;18.324;2023-04-01T23:06:57;99331.37;;;10.03;76.13
73952;BME280;62304;47.662;18.324;2023-04-01T23:10:05;99341.28;;;10.00;76.26
73952;BME280;62304;47.662;18.324;2023-04-01T23:13:19;99338.13;;;10.02;76.46
73952;BME280;62304;47.662;18.324;2023-04-01T23:16:41;99333.00;;;10.04;76.57
73952;BME280;62304;47.662;18.324;2023-04-01T23:20:24;99347.28;;;10.13;76.56
73952;BME280;62304;47.662;18.324;2023-04-01T23:33:36;99339.25;;;9.90;77.54
73952;BME280;62304;47.662;18.324;2023-04-01T23:36:45;99354.28;;;9.89;76.86
73952;BME280;62304;47.662;18.324;2023-04-01T23:39:57;99359.41;;;9.87;77.36
73952;BME280;62304;47.662;18.324;2023-04-01T23:43:00;99361.37;;;9.83;77.54
73952;BME280;62304;47.662;18.324;2023-04-01T23:46:05;99366.09;;;9.79;77.38
73952;BME280;62304;47.662;18.324;2023-04-01T23:49:14;99372.47;;;9.87;77.80
73952;BME280;62304;47.662;18.324;2023-04-01T23:52:41;99370.47;;;9.87;77.43
73952;BME280;62304;47.662;18.324;2023-04-01T23:55:46;99376.37;;;9.82;77.45
73952;BME280;62304;47.662;18.324;2023-04-01T23:58:52;99370.84;;;9.79;77.75
